createdAt,value
2018-12-16T01:04:10.048Z,95147.86
2018-12-16T01:09:13.394Z,95150.15
2018-12-16T01:14:16.735Z,95131.35
2018-12-16T01:19:20.065Z,95122.00
2018-12-16T01:24:23.393Z,95104.73
2018-12-16T01:29:26.737Z,95087.57
2018-12-16T02:31:36.094Z,95029.77
2018-12-16T02:36:39.425Z,95018.54
2018-12-16T02:41:42.764Z,95018.97
2018-12-16T02:46:46.101Z,95018.56
2018-12-16T02:51:49.443Z,95016.77
2018-12-16T02:56:52.772Z,95026.25
2018-12-16T04:05:21.251Z,94959.19
2018-12-16T04:10:24.595Z,94949.19
2018-12-16T04:15:28.712Z,94957.91
2018-12-16T04:20:32.053Z,94964.97
2018-12-16T04:25:35.389Z,94956.23
2018-12-16T04:30:38.739Z,94960.49
2018-12-16T06:04:26.886Z,94919.04
2018-12-16T06:09:31.004Z,94911.34
2018-12-16T06:14:35.325Z,94911.22
2018-12-16T06:19:38.673Z,94905.90
2018-12-16T06:24:42.010Z,94896.19
2018-12-16T06:29:45.381Z,94888.67
2018-12-16T06:34:48.709Z,94876.00
2018-12-16T06:39:52.044Z,94879.47
2018-12-16T06:44:55.381Z,94872.20
2018-12-16T06:49:58.717Z,94879.23
2018-12-16T06:55:02.092Z,94865.29
2018-12-16T07:00:05.549Z,94861.27
2018-12-16T07:05:08.906Z,94857.17
2018-12-16T07:10:12.241Z,94862.81
2018-12-16T07:15:15.582Z,94883.81
2018-12-16T07:20:19.690Z,94870.00
2018-12-16T07:25:23.049Z,94884.27
2018-12-16T07:30:26.493Z,94871.05
2018-12-16T07:35:31.826Z,94865.61
2018-12-16T07:40:35.205Z,94892.38
2018-12-16T07:45:39.300Z,94895.34
2018-12-16T07:50:42.628Z,94909.55
2018-12-16T07:55:45.977Z,94906.86
2018-12-16T08:00:49.344Z,94913.33
2018-12-16T08:05:52.671Z,94893.13
2018-12-16T08:10:56.010Z,94891.27
2018-12-16T08:15:59.342Z,94885.84
2018-12-16T08:21:02.668Z,94887.78
2018-12-16T08:26:05.997Z,94887.83
2018-12-16T08:31:09.326Z,94904.90
2018-12-16T08:36:12.664Z,94902.01
2018-12-16T08:41:15.993Z,94896.16
2018-12-16T08:46:19.343Z,94897.19
2018-12-16T08:51:22.696Z,94891.19
2018-12-16T08:56:26.024Z,94878.37
2018-12-16T09:01:29.428Z,94884.72
2018-12-16T09:06:32.704Z,94880.17
2018-12-16T09:11:36.033Z,94880.38
2018-12-16T09:16:40.131Z,94875.15
2018-12-16T09:21:43.460Z,94895.47
2018-12-16T09:26:47.552Z,94876.16
2018-12-16T09:31:50.889Z,94899.67
2018-12-16T09:37:01.231Z,94900.29
2018-12-16T09:42:04.560Z,94875.67
2018-12-16T09:47:07.958Z,94874.61
2018-12-16T09:52:11.311Z,94882.78
2018-12-16T09:57:15.418Z,94884.02
2018-12-16T10:02:19.175Z,94882.78
2018-12-16T10:07:23.289Z,94873.86
2018-12-16T10:12:27.391Z,94883.03
2018-12-16T10:17:30.760Z,94886.06
2018-12-16T10:22:34.139Z,94895.94
2018-12-16T10:27:38.237Z,94877.52
2018-12-16T10:32:41.692Z,94882.28
2018-12-16T10:37:45.794Z,94870.97
2018-12-16T10:42:49.156Z,94881.97
2018-12-16T10:47:52.720Z,94881.58
2018-12-16T10:52:56.169Z,94876.36
2018-12-16T10:57:59.510Z,94872.96
2018-12-16T11:03:02.877Z,94872.50
2018-12-16T11:08:06.965Z,94873.94
2018-12-16T11:13:24.555Z,94869.52
2018-12-16T11:18:28.757Z,94852.99
2018-12-16T11:23:32.121Z,94847.88
2018-12-16T11:28:35.476Z,94850.84
2018-12-16T11:33:38.844Z,94844.16
2018-12-16T11:38:42.191Z,94848.48
2018-12-16T11:43:45.534Z,94860.91
2018-12-16T11:48:48.892Z,94861.16
2018-12-16T11:53:52.229Z,94855.34
2018-12-16T11:58:55.576Z,94851.89
2018-12-16T12:03:58.953Z,94841.63
2018-12-16T12:09:02.312Z,94844.32
2018-12-16T12:14:05.765Z,94839.58
2018-12-16T12:19:09.145Z,94831.26
2018-12-16T12:24:12.523Z,94832.17
2018-12-16T12:29:15.877Z,94842.20
2018-12-16T12:34:20.145Z,94836.58
2018-12-16T12:39:23.530Z,94843.31
2018-12-16T12:44:37.832Z,94841.67
2018-12-16T12:49:55.144Z,94847.50
2018-12-16T12:55:05.644Z,94861.53
2018-12-16T13:00:09.011Z,94859.41
2018-12-16T13:05:12.399Z,94865.54
2018-12-16T13:10:20.499Z,94860.45
2018-12-16T13:15:24.836Z,94854.13
2018-12-16T13:20:28.211Z,94857.98
2018-12-16T13:25:49.230Z,94848.20
2018-12-16T13:30:52.576Z,94847.30
2018-12-16T13:35:55.951Z,94845.50
2018-12-16T13:40:59.320Z,94849.58
2018-12-16T13:46:02.668Z,94853.86
2018-12-16T13:51:06.041Z,94858.25
2018-12-16T13:56:09.379Z,94867.70
2018-12-16T14:01:12.732Z,94873.65
2018-12-16T14:06:16.095Z,94882.95
2018-12-16T14:11:19.447Z,94898.02
2018-12-16T14:16:22.796Z,94906.14
2018-12-16T14:21:26.268Z,94914.00
2018-12-16T14:26:30.305Z,94918.20
2018-12-16T14:31:33.668Z,94927.65
2018-12-16T14:36:37.166Z,94936.66
2018-12-16T14:41:40.582Z,94928.20
2018-12-16T14:46:44.706Z,94925.98
2018-12-16T14:51:48.132Z,94921.79
2018-12-16T14:56:53.078Z,94914.81
2018-12-16T15:01:58.738Z,94920.27
2018-12-16T15:07:02.124Z,94933.05
2018-12-16T15:12:05.463Z,94942.64
2018-12-16T15:17:09.584Z,94943.57
2018-12-16T15:22:12.962Z,94946.48
2018-12-16T15:27:16.321Z,94954.20
2018-12-16T15:32:19.659Z,94950.20
2018-12-16T15:37:23.024Z,94952.17
2018-12-16T15:42:26.375Z,94964.19
2018-12-16T15:47:31.676Z,94966.90
2018-12-16T15:52:35.038Z,94963.11
2018-12-16T15:57:38.382Z,94976.19
2018-12-16T16:02:41.719Z,94978.91
2018-12-16T16:07:45.096Z,94985.98
2018-12-16T16:12:48.447Z,94985.60
2018-12-16T16:17:53.284Z,94984.81
2018-12-16T16:22:55.179Z,94984.97
2018-12-16T16:27:58.508Z,94989.66
2018-12-16T16:33:02.629Z,94994.27
2018-12-16T16:38:06.736Z,94997.92
2018-12-16T16:43:10.073Z,94993.97
2018-12-16T16:48:14.192Z,94994.37
2018-12-16T16:53:18.316Z,94995.29
2018-12-16T16:58:21.660Z,95003.86
2018-12-16T17:03:25.005Z,95011.09
2018-12-16T17:08:28.364Z,95012.33
2018-12-16T17:13:41.896Z,95002.36
2018-12-16T17:18:59.201Z,95021.08
2018-12-16T17:24:02.540Z,95012.02
2018-12-16T17:29:05.886Z,95018.42
2018-12-16T17:34:09.232Z,95034.48
2018-12-16T17:39:12.596Z,95038.27
2018-12-16T17:44:19.765Z,95029.96
2018-12-16T17:49:23.112Z,95038.11
2018-12-16T17:54:26.492Z,95039.43
2018-12-16T17:59:29.832Z,95039.92
2018-12-16T18:04:33.933Z,95035.39
2018-12-16T18:09:37.296Z,95028.56
2018-12-16T18:14:40.643Z,95029.48
2018-12-16T18:19:44.003Z,95034.09
2018-12-16T18:24:47.327Z,95030.20
2018-12-16T18:29:50.672Z,95031.94
2018-12-16T18:34:54.029Z,95030.69
2018-12-16T18:39:57.381Z,95029.13
2018-12-16T18:45:00.730Z,95030.30
2018-12-16T18:50:04.064Z,95032.25
2018-12-16T18:55:08.350Z,95036.64
2018-12-16T19:00:11.616Z,95029.63
2018-12-16T19:05:15.094Z,95036.37
2018-12-16T19:10:18.466Z,95031.37
2018-12-16T19:15:21.808Z,95024.97
2018-12-16T19:20:25.936Z,95023.42
2018-12-16T19:25:30.453Z,95030.58
2018-12-16T19:30:47.280Z,95039.61
2018-12-16T19:35:50.772Z,95041.09
2018-12-16T19:40:54.529Z,95049.24
2018-12-16T19:45:57.879Z,95055.55
2018-12-16T19:51:01.984Z,95054.23
2018-12-16T19:56:05.432Z,95055.47
2018-12-16T20:01:08.955Z,95067.20
2018-12-16T20:11:46.430Z,95080.97
2018-12-16T20:16:49.770Z,95086.66
2018-12-16T20:21:53.189Z,95083.34
2018-12-16T20:26:56.668Z,95094.23
2018-12-16T20:32:00.046Z,95086.63
2018-12-16T20:37:03.410Z,95097.06
2018-12-16T20:42:06.745Z,95095.91
2018-12-16T20:47:10.858Z,95099.95
2018-12-16T20:52:14.193Z,95092.22
2018-12-16T20:57:18.918Z,95093.94
2018-12-16T21:02:22.418Z,95085.39
2018-12-16T21:07:25.753Z,95082.67
2018-12-16T21:12:36.508Z,95079.77
2018-12-16T21:17:45.429Z,95085.78
2018-12-16T21:22:52.449Z,95076.45
2018-12-16T21:27:55.811Z,95079.16
2018-12-16T21:32:59.176Z,95071.22
2018-12-16T21:38:02.519Z,95070.16
2018-12-16T21:43:06.641Z,95067.31
2018-12-16T21:48:10.756Z,95066.44
2018-12-16T21:53:14.109Z,95060.53
2018-12-16T21:58:17.522Z,95063.00
2018-12-16T22:03:20.906Z,95068.50
2018-12-16T22:08:25.012Z,95061.28
2018-12-16T22:13:36.172Z,95071.36
2018-12-16T22:18:39.521Z,95067.78
2018-12-16T22:23:42.861Z,95068.38
2018-12-16T22:28:46.431Z,95068.61
2018-12-16T22:33:49.775Z,95076.03
2018-12-16T22:38:53.133Z,95077.30
2018-12-16T22:43:56.495Z,95088.31
2018-12-16T22:48:59.831Z,95086.09
2018-12-16T22:54:03.205Z,95088.30
2018-12-16T22:59:06.588Z,95094.53
2018-12-16T23:35:42.180Z,95086.17
2018-12-16T23:40:45.501Z,95078.82
2018-12-16T23:45:48.841Z,95082.51
2018-12-16T23:50:52.181Z,95073.70
2018-12-16T23:55:55.512Z,95070.33
